sensor_id;sensor_type;location;lat;lon;timestamp;P1;durP1;ratioP1;P2;durP2;ratioP2
13171;SDS011;6651;53.200;10.432;2023-03-23T00:00:16;7.63;;;3.90;;
13171;SDS011;6651;53.200;10.432;2023-03-23T00:02:42;6.80;;;3.50;;
13171;SDS011;6651;53.200;10.432;2023-03-23T00:05:08;4.72;;;3.17;;
13171;SDS011;6651;53.200;10.432;2023-03-23T00:07:34;6.95;;;3.42;;
13171;SDS011;6651;53.200;10.432;2023-03-23T00:10:00;6.97;;;3.50;;
13171;SDS011;6651;53.200;10.432;2023-03-23T00:12:27;7.70;;;3.97;;
13171;SDS011;6651;53.200;10.432;2023-03-23T00:14:58;4.85;;;3.30;;
13171;SDS011;6651;53.200;10.432;2023-03-23T00:17:25;7.13;;;3.88;;
13171;SDS011;6651;53.200;10.432;2023-03-23T00:19:51;5.25;;;3.38;;
13171;SDS011;6651;53.200;10.432;2023-03-23T00:22:18;5.80;;;3.30;;
13171;SDS011;6651;53.200;10.432;2023-03-23T00:24:46;8.13;;;4.18;;
13171;SDS011;6651;53.200;10.432;2023-03-23T00:27:12;6.13;;;3.92;;
13171;SDS011;6651;53.200;10.432;2023-03-23T00:29:39;5.90;;;4.15;;
13171;SDS011;6651;53.200;10.432;2023-03-23T00:32:06;6.68;;;3.72;;
13171;SDS011;6651;53.200;10.432;2023-03-23T00:34:37;5.40;;;3.72;;
13171;SDS011;6651;53.200;10.432;2023-03-23T00:37:05;6.03;;;3.78;;
13171;SDS011;6651;53.200;10.432;2023-03-23T00:39:32;7.72;;;4.03;;
13171;SDS011;6651;53.200;10.432;2023-03-23T00:41:58;6.13;;;4.18;;
13171;SDS011;6651;53.200;10.432;2023-03-23T00:44:28;7.47;;;4.03;;
13171;SDS011;6651;53.200;10.432;2023-03-23T00:46:55;7.72;;;4.10;;
13171;SDS011;6651;53.200;10.432;2023-03-23T00:49:22;6.03;;;4.28;;
13171;SDS011;6651;53.200;10.432;2023-03-23T00:51:55;8.43;;;4.32;;
13171;SDS011;6651;53.200;10.432;2023-03-23T00:54:21;8.10;;;4.70;;
13171;SDS011;6651;53.200;10.432;2023-03-23T00:56:47;5.82;;;4.07;;
13171;SDS011;6651;53.200;10.432;2023-03-23T00:59:13;5.72;;;4.25;;
13171;SDS011;6651;53.200;10.432;2023-03-23T01:01:40;6.28;;;4.40;;
13171;SDS011;6651;53.200;10.432;2023-03-23T01:04:06;7.18;;;4.75;;
13171;SDS011;6651;53.200;10.432;2023-03-23T01:06:33;6.82;;;4.70;;
13171;SDS011;6651;53.200;10.432;2023-03-23T01:09:00;8.73;;;5.03;;
13171;SDS011;6651;53.200;10.432;2023-03-23T01:11:28;7.03;;;4.55;;
13171;SDS011;6651;53.200;10.432;2023-03-23T01:13:54;7.22;;;5.07;;
13171;SDS011;6651;53.200;10.432;2023-03-23T01:16:21;8.63;;;4.90;;
13171;SDS011;6651;53.200;10.432;2023-03-23T01:18:47;7.70;;;4.85;;
13171;SDS011;6651;53.200;10.432;2023-03-23T01:21:14;8.18;;;5.20;;
13171;SDS011;6651;53.200;10.432;2023-03-23T01:23:41;6.68;;;4.70;;
13171;SDS011;6651;53.200;10.432;2023-03-23T01:26:08;7.03;;;4.60;;
13171;SDS011;6651;53.200;10.432;2023-03-23T01:28:35;7.20;;;4.85;;
13171;SDS011;6651;53.200;10.432;2023-03-23T01:31:02;7.47;;;5.30;;
13171;SDS011;6651;53.200;10.432;2023-03-23T01:33:29;9.18;;;5.20;;
13171;SDS011;6651;53.200;10.432;2023-03-23T01:35:55;7.97;;;5.40;;
13171;SDS011;6651;53.200;10.432;2023-03-23T01:38:21;7.57;;;5.28;;
13171;SDS011;6651;53.200;10.432;2023-03-23T01:40:47;6.80;;;5.28;;
13171;SDS011;6651;53.200;10.432;2023-03-23T01:43:14;7.65;;;5.22;;
13171;SDS011;6651;53.200;10.432;2023-03-23T01:45:41;7.95;;;5.28;;
13171;SDS011;6651;53.200;10.432;2023-03-23T01:48:12;8.88;;;5.85;;
13171;SDS011;6651;53.200;10.432;2023-03-23T01:51:21;7.10;;;5.20;;
13171;SDS011;6651;53.200;10.432;2023-03-23T01:53:30;8.75;;;5.60;;
13171;SDS011;6651;53.200;10.432;2023-03-23T01:55:58;7.45;;;5.60;;
13171;SDS011;6651;53.200;10.432;2023-03-23T01:58:26;8.07;;;5.47;;
13171;SDS011;6651;53.200;10.432;2023-03-23T02:00:53;8.13;;;5.38;;
13171;SDS011;6651;53.200;10.432;2023-03-23T02:03:21;8.80;;;5.82;;
13171;SDS011;6651;53.200;10.432;2023-03-23T02:05:48;7.18;;;5.75;;
13171;SDS011;6651;53.200;10.432;2023-03-23T02:08:14;8.35;;;6.00;;
13171;SDS011;6651;53.200;10.432;2023-03-23T02:10:43;10.40;;;6.15;;
13171;SDS011;6651;53.200;10.432;2023-03-23T02:13:09;9.55;;;5.95;;
13171;SDS011;6651;53.200;10.432;2023-03-23T02:23:12;10.13;;;6.05;;
13171;SDS011;6651;53.200;10.432;2023-03-23T02:33:21;8.00;;;5.97;;
13171;SDS011;6651;53.200;10.432;2023-03-23T02:36:12;9.77;;;6.43;;
13171;SDS011;6651;53.200;10.432;2023-03-23T02:41:15;8.82;;;6.65;;
13171;SDS011;6651;53.200;10.432;2023-03-23T02:43:44;10.20;;;6.70;;
13171;SDS011;6651;53.200;10.432;2023-03-23T02:46:10;9.43;;;6.40;;
13171;SDS011;6651;53.200;10.432;2023-03-23T02:48:38;10.38;;;6.60;;
13171;SDS011;6651;53.200;10.432;2023-03-23T02:51:05;11.70;;;7.05;;
13171;SDS011;6651;53.200;10.432;2023-03-23T02:53:33;8.05;;;6.50;;
13171;SDS011;6651;53.200;10.432;2023-03-23T02:56:00;8.20;;;6.38;;
13171;SDS011;6651;53.200;10.432;2023-03-23T02:58:28;9.35;;;6.82;;
13171;SDS011;6651;53.200;10.432;2023-03-23T03:00:54;8.52;;;6.40;;
13171;SDS011;6651;53.200;10.432;2023-03-23T03:03:22;8.57;;;7.18;;
13171;SDS011;6651;53.200;10.432;2023-03-23T03:11:02;8.88;;;6.82;;
13171;SDS011;6651;53.200;10.432;2023-03-23T03:18:52;8.50;;;6.85;;
13171;SDS011;6651;53.200;10.432;2023-03-23T03:21:20;8.65;;;7.32;;
13171;SDS011;6651;53.200;10.432;2023-03-23T03:23:50;8.45;;;7.57;;
13171;SDS011;6651;53.200;10.432;2023-03-23T03:26:17;8.15;;;6.88;;
13171;SDS011;6651;53.200;10.432;2023-03-23T03:28:46;7.93;;;7.13;;
13171;SDS011;6651;53.200;10.432;2023-03-23T03:31:12;8.13;;;7.05;;
13171;SDS011;6651;53.200;10.432;2023-03-23T03:33:39;8.73;;;7.05;;
13171;SDS011;6651;53.200;10.432;2023-03-23T03:36:06;7.45;;;6.38;;
13171;SDS011;6651;53.200;10.432;2023-03-23T03:38:45;8.55;;;6.93;;
13171;SDS011;6651;53.200;10.432;2023-03-23T03:41:12;7.72;;;6.93;;
13171;SDS011;6651;53.200;10.432;2023-03-23T03:43:38;9.30;;;6.80;;
13171;SDS011;6651;53.200;10.432;2023-03-23T03:46:04;9.30;;;7.15;;
13171;SDS011;6651;53.200;10.432;2023-03-23T03:48:30;9.60;;;7.57;;
13171;SDS011;6651;53.200;10.432;2023-03-23T03:50:56;10.23;;;7.43;;
13171;SDS011;6651;53.200;10.432;2023-03-23T03:53:25;9.73;;;7.32;;
13171;SDS011;6651;53.200;10.432;2023-03-23T03:55:51;9.90;;;7.28;;
13171;SDS011;6651;53.200;10.432;2023-03-23T03:58:20;9.00;;;7.35;;
13171;SDS011;6651;53.200;10.432;2023-03-23T04:00:47;8.43;;;7.57;;
13171;SDS011;6651;53.200;10.432;2023-03-23T04:03:13;7.93;;;7.13;;
13171;SDS011;6651;53.200;10.432;2023-03-23T04:05:40;9.02;;;7.60;;
13171;SDS011;6651;53.200;10.432;2023-03-23T04:08:06;9.85;;;7.70;;
13171;SDS011;6651;53.200;10.432;2023-03-23T04:10:33;8.40;;;7.45;;
13171;SDS011;6651;53.200;10.432;2023-03-23T04:12:59;11.27;;;7.63;;
13171;SDS011;6651;53.200;10.432;2023-03-23T04:15:25;11.00;;;7.72;;
13171;SDS011;6651;53.200;10.432;2023-03-23T04:17:51;11.48;;;8.15;;
13171;SDS011;6651;53.200;10.432;2023-03-23T04:20:17;8.88;;;7.22;;
13171;SDS011;6651;53.200;10.432;2023-03-23T04:22:44;9.98;;;7.45;;
13171;SDS011;6651;53.200;10.432;2023-03-23T04:25:14;9.45;;;7.20;;
13171;SDS011;6651;53.200;10.432;2023-03-23T04:27:40;8.68;;;7.78;;
13171;SDS011;6651;53.200;10.432;2023-03-23T04:30:08;8.55;;;7.30;;
13171;SDS011;6651;53.200;10.432;2023-03-23T04:32:34;8.15;;;7.25;;
13171;SDS011;6651;53.200;10.432;2023-03-23T04:35:01;8.00;;;7.18;;
13171;SDS011;6651;53.200;10.432;2023-03-23T04:37:27;9.05;;;6.95;;
13171;SDS011;6651;53.200;10.432;2023-03-23T04:39:59;7.97;;;7.10;;
13171;SDS011;6651;53.200;10.432;2023-03-23T04:42:29;7.53;;;6.53;;
13171;SDS011;6651;53.200;10.432;2023-03-23T04:44:58;7.82;;;6.68;;
13171;SDS011;6651;53.200;10.432;2023-03-23T04:47:25;9.05;;;7.03;;
13171;SDS011;6651;53.200;10.432;2023-03-23T04:49:55;8.40;;;6.20;;
13171;SDS011;6651;53.200;10.432;2023-03-23T04:52:22;8.77;;;6.50;;
13171;SDS011;6651;53.200;10.432;2023-03-23T04:54:50;7.93;;;6.50;;
13171;SDS011;6651;53.200;10.432;2023-03-23T04:57:16;10.20;;;6.38;;
13171;SDS011;6651;53.200;10.432;2023-03-23T04:59:42;7.82;;;6.15;;
13171;SDS011;6651;53.200;10.432;2023-03-23T05:02:09;8.45;;;5.90;;
13171;SDS011;6651;53.200;10.432;2023-03-23T05:04:36;8.75;;;6.38;;
13171;SDS011;6651;53.200;10.432;2023-03-23T05:07:02;8.00;;;5.88;;
13171;SDS011;6651;53.200;10.432;2023-03-23T05:09:28;7.65;;;5.60;;
13171;SDS011;6651;53.200;10.432;2023-03-23T05:11:55;8.02;;;5.57;;
13171;SDS011;6651;53.200;10.432;2023-03-23T05:14:21;7.82;;;4.95;;
13171;SDS011;6651;53.200;10.432;2023-03-23T05:16:47;7.43;;;5.40;;
13171;SDS011;6651;53.200;10.432;2023-03-23T05:19:14;7.45;;;5.40;;
13171;SDS011;6651;53.200;10.432;2023-03-23T05:21:40;6.97;;;5.07;;
13171;SDS011;6651;53.200;10.432;2023-03-23T05:24:06;7.07;;;5.43;;
13171;SDS011;6651;53.200;10.432;2023-03-23T05:26:32;8.77;;;5.60;;
13171;SDS011;6651;53.200;10.432;2023-03-23T05:28:58;5.78;;;5.07;;
13171;SDS011;6651;53.200;10.432;2023-03-23T05:31:24;8.05;;;5.43;;
13171;SDS011;6651;53.200;10.432;2023-03-23T05:33:51;5.50;;;4.50;;
13171;SDS011;6651;53.200;10.432;2023-03-23T05:36:17;6.63;;;4.57;;
13171;SDS011;6651;53.200;10.432;2023-03-23T05:38:43;6.05;;;5.07;;
13171;SDS011;6651;53.200;10.432;2023-03-23T05:41:12;5.10;;;4.60;;
13171;SDS011;6651;53.200;10.432;2023-03-23T05:43:38;7.65;;;4.40;;
13171;SDS011;6651;53.200;10.432;2023-03-23T05:46:04;5.85;;;4.20;;
13171;SDS011;6651;53.200;10.432;2023-03-23T05:48:31;6.18;;;4.45;;
13171;SDS011;6651;53.200;10.432;2023-03-23T05:50:58;7.15;;;4.63;;
13171;SDS011;6651;53.200;10.432;2023-03-23T05:53:24;5.43;;;4.18;;
13171;SDS011;6651;53.200;10.432;2023-03-23T05:55:50;6.30;;;4.63;;
13171;SDS011;6651;53.200;10.432;2023-03-23T05:58:17;6.75;;;4.53;;
13171;SDS011;6651;53.200;10.432;2023-03-23T06:00:43;6.50;;;4.30;;
13171;SDS011;6651;53.200;10.432;2023-03-23T06:03:11;6.70;;;4.13;;
13171;SDS011;6651;53.200;10.432;2023-03-23T06:05:42;5.55;;;4.00;;
13171;SDS011;6651;53.200;10.432;2023-03-23T06:08:09;5.57;;;4.05;;
13171;SDS011;6651;53.200;10.432;2023-03-23T06:10:35;5.50;;;3.60;;
13171;SDS011;6651;53.200;10.432;2023-03-23T06:13:01;5.88;;;4.03;;
13171;SDS011;6651;53.200;10.432;2023-03-23T06:15:27;6.57;;;4.00;;
13171;SDS011;6651;53.200;10.432;2023-03-23T06:18:00;6.82;;;3.85;;
13171;SDS011;6651;53.200;10.432;2023-03-23T06:20:26;4.70;;;3.70;;
13171;SDS011;6651;53.200;10.432;2023-03-23T06:22:52;4.68;;;3.50;;
13171;SDS011;6651;53.200;10.432;2023-03-23T06:25:18;5.43;;;3.50;;
13171;SDS011;6651;53.200;10.432;2023-03-23T06:27:44;5.00;;;3.60;;
13171;SDS011;6651;53.200;10.432;2023-03-23T06:30:11;4.85;;;3.50;;
13171;SDS011;6651;53.200;10.432;2023-03-23T06:32:40;5.80;;;3.30;;
13171;SDS011;6651;53.200;10.432;2023-03-23T06:35:06;4.45;;;3.30;;
13171;SDS011;6651;53.200;10.432;2023-03-23T06:37:34;4.55;;;3.05;;
13171;SDS011;6651;53.200;10.432;2023-03-23T06:40:01;5.25;;;3.40;;
13171;SDS011;6651;53.200;10.432;2023-03-23T06:42:29;4.35;;;2.80;;
13171;SDS011;6651;53.200;10.432;2023-03-23T06:44:55;2.85;;;2.55;;
13171;SDS011;6651;53.200;10.432;2023-03-23T06:47:22;4.07;;;3.00;;
13171;SDS011;6651;53.200;10.432;2023-03-23T06:49:48;4.57;;;2.67;;
13171;SDS011;6651;53.200;10.432;2023-03-23T06:52:14;4.75;;;2.90;;
13171;SDS011;6651;53.200;10.432;2023-03-23T06:54:40;4.30;;;3.08;;
13171;SDS011;6651;53.200;10.432;2023-03-23T06:57:07;3.83;;;2.60;;
13171;SDS011;6651;53.200;10.432;2023-03-23T06:59:33;3.20;;;2.90;;
13171;SDS011;6651;53.200;10.432;2023-03-23T07:01:59;3.45;;;3.03;;
13171;SDS011;6651;53.200;10.432;2023-03-23T07:04:25;3.33;;;2.90;;
13171;SDS011;6651;53.200;10.432;2023-03-23T07:06:51;4.72;;;3.00;;
13171;SDS011;6651;53.200;10.432;2023-03-23T07:09:17;4.47;;;3.03;;
13171;SDS011;6651;53.200;10.432;2023-03-23T07:11:43;4.25;;;2.92;;
13171;SDS011;6651;53.200;10.432;2023-03-23T07:14:12;5.65;;;2.80;;
13171;SDS011;6651;53.200;10.432;2023-03-23T07:16:38;4.03;;;3.13;;
13171;SDS011;6651;53.200;10.432;2023-03-23T07:19:04;4.25;;;2.80;;
13171;SDS011;6651;53.200;10.432;2023-03-23T07:21:30;4.13;;;2.80;;
13171;SDS011;6651;53.200;10.432;2023-03-23T07:23:56;4.10;;;2.80;;
13171;SDS011;6651;53.200;10.432;2023-03-23T07:26:22;2.65;;;2.40;;
13171;SDS011;6651;53.200;10.432;2023-03-23T07:28:48;3.63;;;2.80;;
13171;SDS011;6651;53.200;10.432;2023-03-23T07:31:14;3.08;;;2.78;;
13171;SDS011;6651;53.200;10.432;2023-03-23T07:33:41;3.38;;;2.65;;
13171;SDS011;6651;53.200;10.432;2023-03-23T07:36:07;4.65;;;2.67;;
13171;SDS011;6651;53.200;10.432;2023-03-23T07:38:33;3.03;;;2.47;;
13171;SDS011;6651;53.200;10.432;2023-03-23T07:40:59;4.22;;;2.80;;
13171;SDS011;6651;53.200;10.432;2023-03-23T07:43:26;4.70;;;2.63;;
13171;SDS011;6651;53.200;10.432;2023-03-23T07:45:52;3.15;;;2.45;;
13171;SDS011;6651;53.200;10.432;2023-03-23T07:48:18;4.32;;;2.60;;
13171;SDS011;6651;53.200;10.432;2023-03-23T07:50:44;2.80;;;2.60;;
13171;SDS011;6651;53.200;10.432;2023-03-23T07:53:11;4.60;;;2.60;;
13171;SDS011;6651;53.200;10.432;2023-03-23T07:55:37;4.20;;;2.70;;
13171;SDS011;6651;53.200;10.432;2023-03-23T07:58:03;4.53;;;2.95;;
13171;SDS011;6651;53.200;10.432;2023-03-23T08:00:29;4.05;;;2.88;;
13171;SDS011;6651;53.200;10.432;2023-03-23T08:02:55;4.82;;;2.80;;
13171;SDS011;6651;53.200;10.432;2023-03-23T08:05:25;4.85;;;2.80;;
13171;SDS011;6651;53.200;10.432;2023-03-23T08:07:52;2.75;;;2.47;;
13171;SDS011;6651;53.200;10.432;2023-03-23T08:10:19;6.03;;;2.97;;
13171;SDS011;6651;53.200;10.432;2023-03-23T08:12:49;3.53;;;2.70;;
13171;SDS011;6651;53.200;10.432;2023-03-23T08:15:16;2.75;;;2.38;;
13171;SDS011;6651;53.200;10.432;2023-03-23T08:17:42;4.13;;;2.50;;
13171;SDS011;6651;53.200;10.432;2023-03-23T08:20:10;3.13;;;2.70;;
13171;SDS011;6651;53.200;10.432;2023-03-23T08:22:41;4.20;;;2.67;;
13171;SDS011;6651;53.200;10.432;2023-03-23T08:25:08;4.63;;;2.67;;
13171;SDS011;6651;53.200;10.432;2023-03-23T08:27:35;3.17;;;2.38;;
13171;SDS011;6651;53.200;10.432;2023-03-23T08:30:01;2.58;;;2.38;;
13171;SDS011;6651;53.200;10.432;2023-03-23T08:32:27;4.65;;;2.60;;
13171;SDS011;6651;53.200;10.432;2023-03-23T08:34:54;3.63;;;2.40;;
13171;SDS011;6651;53.200;10.432;2023-03-23T08:37:21;4.47;;;2.60;;
13171;SDS011;6651;53.200;10.432;2023-03-23T08:39:50;2.72;;;2.47;;
13171;SDS011;6651;53.200;10.432;2023-03-23T08:42:16;3.47;;;2.80;;
13171;SDS011;6651;53.200;10.432;2023-03-23T08:44:43;3.13;;;2.67;;
13171;SDS011;6651;53.200;10.432;2023-03-23T08:47:09;3.97;;;2.95;;
13171;SDS011;6651;53.200;10.432;2023-03-23T08:49:35;4.05;;;2.90;;
13171;SDS011;6651;53.200;10.432;2023-03-23T08:52:02;3.88;;;2.60;;
13171;SDS011;6651;53.200;10.432;2023-03-23T08:54:28;3.03;;;2.33;;
13171;SDS011;6651;53.200;10.432;2023-03-23T08:56:58;5.18;;;2.78;;
13171;SDS011;6651;53.200;10.432;2023-03-23T08:59:25;3.83;;;2.45;;
13171;SDS011;6651;53.200;10.432;2023-03-23T09:01:52;3.10;;;2.55;;
13171;SDS011;6651;53.200;10.432;2023-03-23T09:04:18;2.83;;;2.47;;
13171;SDS011;6651;53.200;10.432;2023-03-23T09:06:44;3.95;;;2.60;;
13171;SDS011;6651;53.200;10.432;2023-03-23T09:09:11;4.00;;;2.70;;
13171;SDS011;6651;53.200;10.432;2023-03-23T09:11:37;3.13;;;2.60;;
13171;SDS011;6651;53.200;10.432;2023-03-23T09:14:04;5.55;;;2.70;;
13171;SDS011;6651;53.200;10.432;2023-03-23T09:16:30;4.18;;;2.80;;
13171;SDS011;6651;53.200;10.432;2023-03-23T09:18:57;4.57;;;2.90;;
13171;SDS011;6651;53.200;10.432;2023-03-23T09:21:24;4.47;;;2.85;;
13171;SDS011;6651;53.200;10.432;2023-03-23T09:23:50;4.93;;;3.20;;
13171;SDS011;6651;53.200;10.432;2023-03-23T09:26:16;4.82;;;3.28;;
13171;SDS011;6651;53.200;10.432;2023-03-23T09:28:42;6.63;;;2.97;;
13171;SDS011;6651;53.200;10.432;2023-03-23T09:31:10;7.40;;;2.80;;
13171;SDS011;6651;53.200;10.432;2023-03-23T09:33:36;4.57;;;2.40;;
13171;SDS011;6651;53.200;10.432;2023-03-23T09:36:02;5.82;;;2.55;;
13171;SDS011;6651;53.200;10.432;2023-03-23T09:38:30;4.32;;;2.40;;
13171;SDS011;6651;53.200;10.432;2023-03-23T09:49:04;5.82;;;2.90;;
13171;SDS011;6651;53.200;10.432;2023-03-23T09:54:04;5.60;;;2.58;;
13171;SDS011;6651;53.200;10.432;2023-03-23T09:56:32;7.93;;;2.90;;
13171;SDS011;6651;53.200;10.432;2023-03-23T09:59:09;5.68;;;2.70;;
13171;SDS011;6651;53.200;10.432;2023-03-23T10:01:42;6.35;;;2.72;;
13171;SDS011;6651;53.200;10.432;2023-03-23T10:04:14;6.80;;;2.72;;
13171;SDS011;6651;53.200;10.432;2023-03-23T10:06:41;9.70;;;3.08;;
13171;SDS011;6651;53.200;10.432;2023-03-23T10:09:08;5.95;;;2.72;;
13171;SDS011;6651;53.200;10.432;2023-03-23T10:16:34;6.95;;;2.75;;
13171;SDS011;6651;53.200;10.432;2023-03-23T10:19:11;7.60;;;2.65;;
13171;SDS011;6651;53.200;10.432;2023-03-23T10:21:39;7.60;;;2.55;;
13171;SDS011;6651;53.200;10.432;2023-03-23T10:24:10;9.88;;;2.72;;
13171;SDS011;6651;53.200;10.432;2023-03-23T10:29:23;9.27;;;2.63;;
13171;SDS011;6651;53.200;10.432;2023-03-23T10:31:52;8.90;;;2.63;;
13171;SDS011;6651;53.200;10.432;2023-03-23T10:34:32;11.10;;;3.35;;
13171;SDS011;6651;53.200;10.432;2023-03-23T10:40:00;10.82;;;3.20;;
13171;SDS011;6651;53.200;10.432;2023-03-23T10:42:29;8.82;;;3.22;;
13171;SDS011;6651;53.200;10.432;2023-03-23T10:44:57;9.93;;;3.25;;
13171;SDS011;6651;53.200;10.432;2023-03-23T10:47:24;9.25;;;3.10;;
13171;SDS011;6651;53.200;10.432;2023-03-23T10:49:51;13.98;;;4.07;;
13171;SDS011;6651;53.200;10.432;2023-03-23T10:52:38;9.05;;;3.40;;
13171;SDS011;6651;53.200;10.432;2023-03-23T10:55:14;10.60;;;3.20;;
13171;SDS011;6651;53.200;10.432;2023-03-23T10:57:42;8.35;;;3.15;;
13171;SDS011;6651;53.200;10.432;2023-03-23T11:02:42;8.75;;;2.70;;
13171;SDS011;6651;53.200;10.432;2023-03-23T11:05:21;8.50;;;3.20;;
13171;SDS011;6651;53.200;10.432;2023-03-23T11:07:55;10.25;;;3.30;;
13171;SDS011;6651;53.200;10.432;2023-03-23T11:10:26;8.85;;;2.63;;
13171;SDS011;6651;53.200;10.432;2023-03-23T11:12:56;8.80;;;2.67;;
13171;SDS011;6651;53.200;10.432;2023-03-23T11:15:33;6.75;;;2.55;;
13171;SDS011;6651;53.200;10.432;2023-03-23T11:18:04;9.55;;;2.65;;
13171;SDS011;6651;53.200;10.432;2023-03-23T11:20:34;5.57;;;2.28;;
13171;SDS011;6651;53.200;10.432;2023-03-23T11:23:01;7.32;;;2.58;;
13171;SDS011;6651;53.200;10.432;2023-03-23T11:25:27;5.90;;;2.72;;
13171;SDS011;6651;53.200;10.432;2023-03-23T11:27:53;6.13;;;2.42;;
13171;SDS011;6651;53.200;10.432;2023-03-23T11:30:22;5.75;;;2.47;;
13171;SDS011;6651;53.200;10.432;2023-03-23T11:32:49;8.27;;;2.60;;
13171;SDS011;6651;53.200;10.432;2023-03-23T11:35:23;7.13;;;2.15;;
13171;SDS011;6651;53.200;10.432;2023-03-23T11:37:54;8.35;;;2.75;;
13171;SDS011;6651;53.200;10.432;2023-03-23T11:40:25;5.88;;;2.10;;
13171;SDS011;6651;53.200;10.432;2023-03-23T11:50:32;7.78;;;2.30;;
13171;SDS011;6651;53.200;10.432;2023-03-23T11:53:01;7.13;;;2.30;;
13171;SDS011;6651;53.200;10.432;2023-03-23T11:55:31;6.18;;;2.13;;
13171;SDS011;6651;53.200;10.432;2023-03-23T11:58:00;7.60;;;2.40;;
13171;SDS011;6651;53.200;10.432;2023-03-23T12:00:27;7.75;;;2.25;;
13171;SDS011;6651;53.200;10.432;2023-03-23T12:02:59;5.18;;;2.20;;
13171;SDS011;6651;53.200;10.432;2023-03-23T12:08:31;6.25;;;2.63;;
13171;SDS011;6651;53.200;10.432;2023-03-23T12:21:47;9.70;;;3.17;;
13171;SDS011;6651;53.200;10.432;2023-03-23T12:24:29;8.27;;;3.08;;
13171;SDS011;6651;53.200;10.432;2023-03-23T12:27:00;8.82;;;3.28;;
13171;SDS011;6651;53.200;10.432;2023-03-23T12:37:46;9.77;;;3.15;;
13171;SDS011;6651;53.200;10.432;2023-03-23T12:40:28;8.10;;;3.33;;
13171;SDS011;6651;53.200;10.432;2023-03-23T12:48:13;7.20;;;3.22;;
13171;SDS011;6651;53.200;10.432;2023-03-23T12:50:45;9.60;;;3.50;;
13171;SDS011;6651;53.200;10.432;2023-03-23T12:53:23;8.18;;;3.13;;
13171;SDS011;6651;53.200;10.432;2023-03-23T12:55:52;7.18;;;3.00;;
13171;SDS011;6651;53.200;10.432;2023-03-23T12:58:20;6.78;;;3.22;;
13171;SDS011;6651;53.200;10.432;2023-03-23T13:00:55;8.50;;;3.25;;
13171;SDS011;6651;53.200;10.432;2023-03-23T13:03:24;7.28;;;3.25;;
13171;SDS011;6651;53.200;10.432;2023-03-23T13:05:55;6.95;;;3.40;;
13171;SDS011;6651;53.200;10.432;2023-03-23T13:08:27;5.70;;;3.25;;
13171;SDS011;6651;53.200;10.432;2023-03-23T13:10:58;6.95;;;3.20;;
13171;SDS011;6651;53.200;10.432;2023-03-23T13:13:26;5.70;;;3.20;;
13171;SDS011;6651;53.200;10.432;2023-03-23T13:16:01;5.78;;;2.85;;
13171;SDS011;6651;53.200;10.432;2023-03-23T13:23:44;4.95;;;2.70;;
13171;SDS011;6651;53.200;10.432;2023-03-23T13:26:12;4.80;;;2.47;;
13171;SDS011;6651;53.200;10.432;2023-03-23T13:31:27;5.35;;;2.58;;
13171;SDS011;6651;53.200;10.432;2023-03-23T13:36:31;5.35;;;2.40;;
13171;SDS011;6651;53.200;10.432;2023-03-23T13:38:59;4.40;;;2.00;;
13171;SDS011;6651;53.200;10.432;2023-03-23T13:41:26;4.38;;;2.30;;
13171;SDS011;6651;53.200;10.432;2023-03-23T13:43:52;3.33;;;2.00;;
13171;SDS011;6651;53.200;10.432;2023-03-23T13:48:46;3.78;;;1.90;;
13171;SDS011;6651;53.200;10.432;2023-03-23T13:54:40;4.22;;;1.90;;
13171;SDS011;6651;53.200;10.432;2023-03-23T14:04:51;2.42;;;1.48;;
13171;SDS011;6651;53.200;10.432;2023-03-23T14:07:17;2.22;;;1.48;;
13171;SDS011;6651;53.200;10.432;2023-03-23T14:09:46;3.85;;;1.70;;
13171;SDS011;6651;53.200;10.432;2023-03-23T14:12:15;4.47;;;1.55;;
13171;SDS011;6651;53.200;10.432;2023-03-23T14:14:44;3.92;;;1.85;;
13171;SDS011;6651;53.200;10.432;2023-03-23T14:17:14;3.45;;;1.73;;
13171;SDS011;6651;53.200;10.432;2023-03-23T14:19:41;3.75;;;1.58;;
13171;SDS011;6651;53.200;10.432;2023-03-23T14:22:18;1.52;;;1.30;;
13171;SDS011;6651;53.200;10.432;2023-03-23T14:24:44;2.15;;;1.48;;
13171;SDS011;6651;53.200;10.432;2023-03-23T14:27:12;2.55;;;1.60;;
13171;SDS011;6651;53.200;10.432;2023-03-23T14:29:39;3.38;;;1.80;;
13171;SDS011;6651;53.200;10.432;2023-03-23T14:32:06;1.50;;;1.38;;
13171;SDS011;6651;53.200;10.432;2023-03-23T14:34:33;2.78;;;1.50;;
13171;SDS011;6651;53.200;10.432;2023-03-23T14:37:00;2.30;;;1.33;;
13171;SDS011;6651;53.200;10.432;2023-03-23T14:39:27;3.30;;;1.38;;
13171;SDS011;6651;53.200;10.432;2023-03-23T14:41:55;3.65;;;1.40;;
13171;SDS011;6651;53.200;10.432;2023-03-23T14:44:26;3.33;;;1.67;;
13171;SDS011;6651;53.200;10.432;2023-03-23T14:46:54;2.60;;;1.27;;
13171;SDS011;6651;53.200;10.432;2023-03-23T14:49:25;4.40;;;1.58;;
13171;SDS011;6651;53.200;10.432;2023-03-23T14:51:54;3.20;;;1.15;;
13171;SDS011;6651;53.200;10.432;2023-03-23T14:54:21;4.20;;;1.65;;
13171;SDS011;6651;53.200;10.432;2023-03-23T14:56:47;2.45;;;1.40;;
13171;SDS011;6651;53.200;10.432;2023-03-23T14:59:13;3.38;;;1.67;;
13171;SDS011;6651;53.200;10.432;2023-03-23T15:01:40;2.22;;;1.48;;
13171;SDS011;6651;53.200;10.432;2023-03-23T15:04:13;3.30;;;1.67;;
13171;SDS011;6651;53.200;10.432;2023-03-23T15:06:42;4.03;;;1.55;;
13171;SDS011;6651;53.200;10.432;2023-03-23T15:09:12;2.20;;;1.42;;
13171;SDS011;6651;53.200;10.432;2023-03-23T15:11:39;3.67;;;1.60;;
13171;SDS011;6651;53.200;10.432;2023-03-23T15:14:16;2.70;;;1.60;;
13171;SDS011;6651;53.200;10.432;2023-03-23T15:16:47;4.10;;;1.60;;
13171;SDS011;6651;53.200;10.432;2023-03-23T15:19:18;4.15;;;1.52;;
13171;SDS011;6651;53.200;10.432;2023-03-23T15:21:49;2.30;;;1.35;;
13171;SDS011;6651;53.200;10.432;2023-03-23T15:26:51;3.80;;;1.90;;
13171;SDS011;6651;53.200;10.432;2023-03-23T15:29:18;4.68;;;1.73;;
13171;SDS011;6651;53.200;10.432;2023-03-23T15:31:51;3.90;;;1.70;;
13171;SDS011;6651;53.200;10.432;2023-03-23T15:34:26;3.60;;;1.48;;
13171;SDS011;6651;53.200;10.432;2023-03-23T15:36:55;4.75;;;1.83;;
13171;SDS011;6651;53.200;10.432;2023-03-23T15:39:22;4.47;;;1.70;;
13171;SDS011;6651;53.200;10.432;2023-03-23T15:41:49;3.78;;;1.70;;
13171;SDS011;6651;53.200;10.432;2023-03-23T15:44:23;4.80;;;2.47;;
13171;SDS011;6651;53.200;10.432;2023-03-23T15:46:50;4.90;;;1.50;;
13171;SDS011;6651;53.200;10.432;2023-03-23T15:49:16;3.75;;;1.20;;
13171;SDS011;6651;53.200;10.432;2023-03-23T15:51:42;3.83;;;1.52;;
13171;SDS011;6651;53.200;10.432;2023-03-23T15:54:13;2.65;;;1.25;;
13171;SDS011;6651;53.200;10.432;2023-03-23T15:56:39;3.30;;;1.80;;
13171;SDS011;6651;53.200;10.432;2023-03-23T15:59:05;4.90;;;2.05;;
13171;SDS011;6651;53.200;10.432;2023-03-23T16:01:31;4.57;;;1.92;;
13171;SDS011;6651;53.200;10.432;2023-03-23T16:04:13;3.13;;;1.70;;
13171;SDS011;6651;53.200;10.432;2023-03-23T16:06:40;5.88;;;2.13;;
13171;SDS011;6651;53.200;10.432;2023-03-23T16:09:06;4.60;;;1.60;;
13171;SDS011;6651;53.200;10.432;2023-03-23T16:11:35;4.57;;;1.92;;
13171;SDS011;6651;53.200;10.432;2023-03-23T16:14:01;5.13;;;2.10;;
13171;SDS011;6651;53.200;10.432;2023-03-23T16:16:48;5.53;;;1.92;;
13171;SDS011;6651;53.200;10.432;2023-03-23T16:19:14;4.35;;;1.70;;
13171;SDS011;6651;53.200;10.432;2023-03-23T16:21:40;4.88;;;1.90;;
13171;SDS011;6651;53.200;10.432;2023-03-23T16:24:07;4.13;;;2.00;;
13171;SDS011;6651;53.200;10.432;2023-03-23T16:26:33;5.78;;;2.05;;
13171;SDS011;6651;53.200;10.432;2023-03-23T16:28:59;3.85;;;1.80;;
13171;SDS011;6651;53.200;10.432;2023-03-23T16:31:27;5.05;;;1.90;;
13171;SDS011;6651;53.200;10.432;2023-03-23T16:33:53;5.20;;;1.95;;
13171;SDS011;6651;53.200;10.432;2023-03-23T16:36:19;3.65;;;1.80;;
13171;SDS011;6651;53.200;10.432;2023-03-23T16:38:45;4.53;;;1.92;;
13171;SDS011;6651;53.200;10.432;2023-03-23T16:41:11;5.25;;;2.17;;
13171;SDS011;6651;53.200;10.432;2023-03-23T16:43:37;5.40;;;1.80;;
13171;SDS011;6651;53.200;10.432;2023-03-23T16:46:04;3.70;;;2.05;;